Time;durP1;ratioP1;P1;durP2;ratioP2;P2;SDS_P1;SDS_P2;PMS_P1;PMS_P2;Temp;Humidity;BMP_temperature;BMP_pressure;BME280_temperature;BME280_humidity;BME280_pressure;Samples;Min_cycle;Max_cycle;Signal;HPM_P1;HPM_P2
2021/03/01 00:01:34;;;;;;;7.28;6.22;;;;;;;24.49;13.84;95477.66;5090300;28;20048;-51
2021/03/01 00:04:01;;;;;;;5.97;5.18;;;;;;;24.16;14.43;95485.22;5078228;28;20056;-52
2021/03/01 00:06:29;;;;;;;7.57;5.80;;;;;;;24.15;14.30;95483.69;5116136;28;20051;-50
2021/03/01 00:08:56;;;;;;;7.03;5.60;;;;;;;24.07;14.39;95482.75;5090423;28;20051;-51
2021/03/01 00:11:23;;;;;;;6.93;6.18;;;;;;;23.76;14.41;95480.84;5076122;28;20067;-50
2021/03/01 00:13:50;;;;;;;6.85;5.95;;;;;;;23.93;14.37;95483.16;5075656;28;20473;-51
2021/03/01 00:16:17;;;;;;;8.02;6.22;;;;;;;23.59;14.69;95475.81;5078556;28;20043;-53
2021/03/01 00:18:44;;;;;;;8.45;6.10;;;;;;;23.62;14.80;95477.78;5116560;28;20043;-49
2021/03/01 00:21:11;;;;;;;7.00;5.70;;;;;;;23.66;14.56;95471.41;5098435;28;20043;-50
2021/03/01 00:23:38;;;;;;;7.68;6.15;;;;;;;23.34;14.80;95465.22;5108769;28;20044;-53
2021/03/01 00:26:05;;;;;;;7.75;6.18;;;;;;;23.65;14.56;95469.88;5076519;28;20071;-52
2021/03/01 00:28:32;;;;;;;7.53;5.68;;;;;;;23.38;14.73;95455.41;5116282;28;20046;-51
2021/03/01 00:31:00;;;;;;;6.28;5.60;;;;;;;23.50;14.87;95456.47;5116197;28;20047;-49
2021/03/01 00:33:27;;;;;;;7.55;6.32;;;;;;;23.13;15.14;95459.31;5116214;28;20448;-48
2021/03/01 00:35:54;;;;;;;6.85;5.82;;;;;;;23.26;15.05;95463.47;5115558;28;20048;-50
2021/03/01 00:38:21;;;;;;;7.65;5.80;;;;;;;23.26;14.82;95463.47;5115578;28;20079;-50
2021/03/01 00:40:48;;;;;;;7.72;5.88;;;;;;;22.97;15.12;95463.81;5116150;28;20044;-51
2021/03/01 00:43:15;;;;;;;7.13;5.65;;;;;;;22.96;15.08;95454.28;5116025;28;20043;-48
2021/03/01 00:45:42;;;;;;;6.07;5.40;;;;;;;23.09;14.68;95453.09;5115888;28;20043;-48
2021/03/01 00:48:09;;;;;;;7.28;6.20;;;;;;;22.92;15.34;95453.41;5114689;28;20066;-48
2021/03/01 00:50:37;;;;;;;6.68;5.75;;;;;;;23.02;14.97;95460.91;5115746;28;20044;-48
2021/03/01 00:53:04;;;;;;;6.55;5.70;;;;;;;23.12;14.76;95449.75;5115069;28;20047;-48
2021/03/01 00:55:31;;;;;;;6.85;5.70;;;;;;;22.94;14.95;95443.94;5097538;28;20047;-47
2021/03/01 00:57:59;;;;;;;7.35;5.50;;;;;;;22.95;15.12;95444.72;5097889;28;20050;-49
2021/03/01 01:00:26;;;;;;;6.93;5.95;;;;;;;22.96;14.77;95433.72;5089217;28;20037;-51
2021/03/01 01:03:01;;;;;;;7.85;5.97;;;;;;;22.91;14.62;95435.84;5057105;28;20056;-51
2021/03/01 01:05:41;;;;;;;6.75;5.80;;;;;;;22.87;15.15;95429.63;5088870;28;20488;-53
2021/03/01 01:08:08;;;;;;;8.63;5.88;;;;;;;22.70;14.93;95428.75;5098894;28;20052;-53
2021/03/01 01:10:37;;;;;;;6.93;5.57;;;;;;;22.79;14.97;95423.28;5116436;28;20040;-48
2021/03/01 01:13:05;;;;;;;7.88;5.90;;;;;;;22.89;14.69;95428.16;5115864;28;20369;-54
2021/03/01 01:15:33;;;;;;;7.88;5.65;;;;;;;22.71;15.11;95426.88;5115851;28;20051;-61
2021/03/01 01:18:00;;;;;;;7.90;5.18;;;;;;;22.51;14.98;95425.91;5116184;28;20052;-55
2021/03/01 01:20:27;;;;;;;5.68;4.72;;;;;;;22.66;15.23;95422.56;5116373;28;20039;-55
2021/03/01 01:22:55;;;;;;;6.28;5.50;;;;;;;22.70;14.93;95423.44;5116232;28;20055;-53
2021/03/01 01:25:22;;;;;;;6.65;5.28;;;;;;;22.74;14.82;95426.97;5102145;28;20055;-55
2021/03/01 01:27:49;;;;;;;6.70;5.25;;;;;;;22.54;14.94;95408.47;5097002;28;20054;-58
2021/03/01 01:30:19;;;;;;;7.07;5.20;;;;;;;22.56;15.30;95415.00;5099499;28;20048;-50
2021/03/01 01:32:46;;;;;;;6.90;5.28;;;;;;;22.54;15.08;95411.13;5099173;28;20047;-50
2021/03/01 01:35:15;;;;;;;8.05;5.03;;;;;;;22.75;14.99;95407.19;5118632;28;20043;-50
2021/03/01 01:37:42;;;;;;;7.00;4.97;;;;;;;22.50;15.27;95411.03;5119438;28;20043;-51
2021/03/01 01:40:12;;;;;;;6.72;5.22;;;;;;;22.61;15.17;95406.00;5119451;28;20043;-51
2021/03/01 01:42:39;;;;;;;5.85;5.22;;;;;;;22.55;15.29;95400.16;5119066;28;20047;-50
2021/03/01 01:45:12;;;;;;;7.85;5.15;;;;;;;22.35;15.44;95401.06;5100864;28;20047;-51
2021/03/01 01:47:40;;;;;;;7.97;5.45;;;;;;;22.36;15.47;95408.72;5086578;28;20048;-49
2021/03/01 01:50:08;;;;;;;6.57;5.03;;;;;;;22.37;14.89;95401.50;5079181;28;20075;-57
2021/03/01 01:52:35;;;;;;;6.30;5.28;;;;;;;22.36;15.21;95406.06;5078569;28;20041;-48
2021/03/01 01:55:07;;;;;;;6.18;4.97;;;;;;;22.47;15.02;95411.72;5088094;28;20052;-50
2021/03/01 01:57:36;;;;;;;6.10;4.97;;;;;;;22.17;15.35;95407.75;5118693;28;20043;-50
2021/03/01 02:00:44;;;;;;;6.18;4.97;;;;;;;22.42;15.06;95410.06;5111519;28;20362;-49
2021/03/01 02:03:27;;;;;;;5.38;4.88;;;;;;;22.30;15.27;95402.06;5117610;28;20047;-49
2021/03/01 02:06:01;;;;;;;6.60;5.25;;;;;;;22.36;15.07;95402.63;5118029;28;20051;-52
2021/03/01 02:08:51;;;;;;;5.72;4.82;;;;;;;22.28;15.54;95414.19;5100978;28;20047;-48
2021/03/01 02:11:57;;;;;;;7.40;5.18;;;;;;;22.32;15.33;95420.38;5118476;28;20373;-49
2021/03/01 02:14:38;;;;;;;6.30;5.07;;;;;;;22.29;15.32;95407.75;5086778;28;20051;-48
2021/03/01 02:17:05;;;;;;;6.13;5.53;;;;;;;22.37;15.41;95412.16;5118766;28;20377;-48
2021/03/01 02:19:36;;;;;;;7.78;5.07;;;;;;;22.22;15.51;95410.97;5100956;28;20051;-49
2021/03/01 02:22:04;;;;;;;6.03;4.93;;;;;;;22.13;15.50;95413.75;5119088;28;20358;-51
2021/03/01 02:24:40;;;;;;;6.18;5.18;;;;;;;22.25;15.44;95414.84;5100942;28;20043;-53
2021/03/01 02:27:09;;;;;;;6.55;5.20;;;;;;;22.26;15.25;95405.75;5101306;28;20055;-53
2021/03/01 02:29:37;;;;;;;5.78;4.70;;;;;;;22.14;15.45;95409.22;5118879;28;20365;-55
2021/03/01 02:32:04;;;;;;;6.22;5.38;;;;;;;21.92;15.49;95398.97;5101091;28;20062;-52
2021/03/01 02:34:37;;;;;;;6.25;5.32;;;;;;;21.95;15.76;95401.75;5118225;28;20050;-55
2021/03/01 02:37:09;;;;;;;6.85;5.35;;;;;;;21.89;15.64;95397.75;5101357;28;20078;-51
2021/03/01 02:39:39;;;;;;;6.82;5.30;;;;;;;21.97;15.56;95404.84;5117939;28;20070;-51
2021/03/01 02:42:08;;;;;;;7.78;6.13;;;;;;;21.88;15.77;95400.75;5091710;28;20379;-50
2021/03/01 02:44:36;;;;;;;5.93;5.00;;;;;;;21.73;15.82;95404.84;5081824;28;20055;-51
2021/03/01 02:47:04;;;;;;;7.18;5.38;;;;;;;21.78;16.01;95394.75;5100296;28;20051;-49
2021/03/01 02:49:31;;;;;;;7.18;5.43;;;;;;;21.82;15.99;95389.53;5118198;28;20040;-50
2021/03/01 02:52:00;;;;;;;6.68;5.22;;;;;;;21.61;15.86;95391.53;5100143;28;20050;-50
2021/03/01 02:54:28;;;;;;;6.03;5.25;;;;;;;21.72;15.75;95393.41;5099836;28;20455;-52
2021/03/01 02:56:57;;;;;;;5.72;5.13;;;;;;;22.02;15.59;95390.53;5100102;28;20058;-52
2021/03/01 02:59:25;;;;;;;6.97;5.40;;;;;;;22.11;15.32;95383.22;5099869;28;20047;-50
2021/03/01 03:01:53;;;;;;;6.07;5.03;;;;;;;21.69;15.90;95380.00;5099991;28;20362;-50
2021/03/01 03:04:21;;;;;;;9.02;5.75;;;;;;;21.73;15.86;95375.56;5097850;28;20040;-52
2021/03/01 03:06:49;;;;;;;6.43;5.28;;;;;;;21.73;15.95;95383.56;5100494;28;20040;-48
2021/03/01 03:09:17;;;;;;;6.80;5.38;;;;;;;21.67;16.05;95390.22;5099833;28;20453;-51
2021/03/01 03:11:44;;;;;;;6.35;4.93;;;;;;;21.54;15.94;95387.53;5117850;28;20512;-50
2021/03/01 03:14:18;;;;;;;8.32;5.55;;;;;;;21.45;16.05;95386.84;5117354;28;20044;-50
2021/03/01 03:16:48;;;;;;;6.63;5.28;;;;;;;21.47;16.03;95384.63;5116835;28;20059;-50
2021/03/01 03:19:15;;;;;;;7.45;4.72;;;;;;;21.48;16.00;95386.19;5099179;28;20048;-49
2021/03/01 03:21:42;;;;;;;7.18;5.25;;;;;;;21.66;16.10;95384.13;5117411;28;20054;-53
2021/03/01 03:24:10;;;;;;;6.03;5.20;;;;;;;21.51;15.92;95382.88;5098396;28;20031;-50
2021/03/01 03:26:38;;;;;;;6.75;5.82;;;;;;;21.49;16.18;95382.41;5117575;28;20054;-52
2021/03/01 03:29:05;;;;;;;7.15;5.45;;;;;;;21.31;16.40;95381.06;5117180;28;20043;-48
2021/03/01 03:31:32;;;;;;;7.07;5.63;;;;;;;21.39;16.21;95377.53;5117630;28;20362;-49
2021/03/01 03:33:59;;;;;;;9.52;5.80;;;;;;;21.41;16.38;95375.31;5116438;28;20051;-48
2021/03/01 03:36:30;;;;;;;6.88;5.78;;;;;;;21.42;16.22;95382.19;5099330;28;20047;-48
2021/03/01 03:39:06;;;;;;;9.75;6.10;;;;;;;21.61;16.08;95380.91;5099283;28;20048;-50
2021/03/01 03:41:34;;;;;;;8.45;5.80;;;;;;;21.46;16.30;95375.09;5098967;28;20078;-50
2021/03/01 03:44:03;;;;;;;7.93;6.28;;;;;;;21.38;16.38;95373.31;5096270;28;20050;-50
2021/03/01 03:46:31;;;;;;;6.57;5.63;;;;;;;21.42;16.30;95376.09;5096716;28;20044;-52
2021/03/01 03:48:59;;;;;;;7.03;5.70;;;;;;;21.59;16.27;95372.44;5095706;28;20043;-49
2021/03/01 03:51:28;;;;;;;6.97;5.82;;;;;;;21.47;16.14;95375.88;5078337;28;20043;-50
2021/03/01 03:54:10;;;;;;;7.22;5.93;;;;;;;21.50;16.04;95380.53;5078410;28;20053;-49
2021/03/01 03:56:38;;;;;;;7.00;6.13;;;;;;;21.37;16.33;95371.00;5078796;28;20051;-52
2021/03/01 03:59:09;;;;;;;7.00;6.25;;;;;;;21.00;16.87;95372.75;5096179;28;20048;-51
2021/03/01 04:01:36;;;;;;;7.18;6.10;;;;;;;21.13;16.45;95366.38;5095307;28;20044;-50
2021/03/01 04:04:06;;;;;;;8.02;6.10;;;;;;;21.06;16.52;95372.19;5079338;28;20048;-51
2021/03/01 04:06:37;;;;;;;9.68;6.75;;;;;;;21.07;16.79;95370.31;5116580;28;20467;-52
2021/03/01 04:09:07;;;;;;;8.15;6.15;;;;;;;21.07;16.65;95367.66;5098898;28;20051;-49
2021/03/01 04:11:35;;;;;;;7.05;6.35;;;;;;;21.24;16.25;95372.84;5116851;28;20351;-48
2021/03/01 04:14:03;;;;;;;8.93;6.13;;;;;;;21.16;16.48;95371.03;5098630;28;20361;-52
2021/03/01 04:16:30;;;;;;;8.32;5.80;;;;;;;21.06;16.69;95377.53;5117126;28;20050;-53
2021/03/01 04:19:04;;;;;;;7.10;5.95;;;;;;;20.98;17.06;95370.41;5098400;28;20039;-48
2021/03/01 04:21:33;;;;;;;6.85;5.70;;;;;;;21.13;16.69;95377.00;5098483;28;20048;-50
2021/03/01 04:24:02;;;;;;;8.98;6.53;;;;;;;21.24;16.72;95378.94;5098088;28;20047;-50
2021/03/01 04:26:30;;;;;;;8.98;6.97;;;;;;;21.06;16.92;95371.44;5098466;28;20056;-50
2021/03/01 04:28:57;;;;;;;7.63;6.78;;;;;;;21.08;16.85;95375.34;5098365;28;20051;-48
2021/03/01 04:31:26;;;;;;;8.05;7.25;;;;;;;21.14;17.10;95379.34;5098316;28;20479;-50
2021/03/01 04:33:55;;;;;;;8.15;6.80;;;;;;;21.17;16.81;95381.34;5097705;28;20051;-49
2021/03/01 04:36:23;;;;;;;9.57;7.13;;;;;;;21.17;16.90;95375.25;5112331;28;20047;-47
2021/03/01 04:38:51;;;;;;;9.60;7.88;;;;;;;21.27;16.74;95388.13;5097425;28;20039;-50
2021/03/01 04:41:18;;;;;;;11.85;8.10;;;;;;;21.15;16.80;95369.47;5098024;28;20054;-49
2021/03/01 04:43:46;;;;;;;10.82;8.07;;;;;;;21.45;16.60;95373.56;5115755;28;20047;-51
2021/03/01 04:46:13;;;;;;;11.77;8.40;;;;;;;21.41;16.37;95370.00;5097634;28;20050;-51
2021/03/01 04:48:41;;;;;;;10.40;8.55;;;;;;;21.24;16.67;95372.84;5098277;28;20058;-48
2021/03/01 04:51:09;;;;;;;12.30;9.27;;;;;;;21.34;16.90;95368.97;5097964;28;20047;-50
2021/03/01 04:53:36;;;;;;;9.98;8.02;;;;;;;21.02;16.76;95371.31;5097823;28;20374;-49
2021/03/01 04:56:07;;;;;;;8.57;7.68;;;;;;;21.37;16.63;95371.78;5115666;28;20058;-49
2021/03/01 04:58:37;;;;;;;10.55;8.00;;;;;;;21.14;16.97;95376.69;5082197;28;20067;-49
2021/03/01 05:01:06;;;;;;;12.48;10.10;;;;;;;21.48;16.81;95367.56;5078070;28;20358;-51
2021/03/01 05:03:34;;;;;;;11.77;10.02;;;;;;;21.69;17.18;95372.03;5092705;28;20064;-51
2021/03/01 05:06:01;;;;;;;11.07;9.57;;;;;;;21.70;17.34;95371.69;5081620;28;20048;-52
2021/03/01 05:08:29;;;;;;;14.13;9.80;;;;;;;21.85;17.33;95380.88;5075395;28;20075;-48
2021/03/01 05:10:57;;;;;;;12.68;7.32;;;;;;;23.01;17.77;95371.38;5091213;28;20465;-52
2021/03/01 05:13:24;;;;;;;9.63;7.95;;;;;;;23.77;16.53;95383.59;5062060;28;20044;-56
2021/03/01 05:15:52;;;;;;;11.23;7.80;;;;;;;24.37;15.86;95386.13;5090374;28;20044;-50
2021/03/01 05:18:24;;;;;;;;;;;;;;;25.60;15.94;95388.88;5075839;28;20048;-54
2021/03/01 05:20:51;;;;;;;9.63;8.48;;;;;;;25.67;15.38;95381.75;5095039;28;19916;-52
2021/03/01 05:23:18;;;;;;;13.48;9.27;;;;;;;24.63;15.95;95380.16;5095234;28;20051;-50
2021/03/01 05:25:45;;;;;;;12.77;9.48;;;;;;;23.84;16.86;95394.44;5094983;28;20051;-53
2021/03/01 05:28:13;;;;;;;9.13;8.20;;;;;;;24.08;16.13;95390.03;5095061;28;20372;-50
2021/03/01 05:30:40;;;;;;;9.95;8.25;;;;;;;23.67;16.71;95402.78;5077099;28;20051;-50
2021/03/01 05:33:07;;;;;;;12.32;8.95;;;;;;;24.69;14.55;95394.78;5097334;28;20051;-53
2021/03/01 05:35:34;;;;;;;11.85;9.38;;;;;;;23.15;14.89;95406.41;5095910;28;20470;-55
2021/03/01 05:38:02;;;;;;;12.85;9.52;;;;;;;22.31;15.35;95413.50;5094309;28;20363;-53
2021/03/01 05:40:29;;;;;;;12.23;9.77;;;;;;;21.40;16.55;95412.88;5076485;28;20044;-57
2021/03/01 05:42:57;;;;;;;13.45;9.77;;;;;;;21.82;16.44;95413.50;5075407;28;20055;-52
2021/03/01 05:45:24;;;;;;;12.80;9.43;;;;;;;21.35;16.95;95419.19;5096131;28;20051;-51
2021/03/01 05:47:51;;;;;;;13.00;10.15;;;;;;;21.52;16.37;95419.00;5084592;28;20051;-53
2021/03/01 05:50:19;;;;;;;11.70;9.18;;;;;;;21.32;16.72;95409.19;5077605;28;20043;-53
2021/03/01 05:52:50;;;;;;;14.10;10.88;;;;;;;21.02;16.96;95413.06;5077779;28;20055;-52
2021/03/01 05:55:17;;;;;;;13.77;10.52;;;;;;;21.21;16.93;95406.16;5094723;28;20048;-53
2021/03/01 05:57:45;;;;;;;18.08;10.80;;;;;;;21.60;16.38;95403.25;5083605;28;20052;-54
2021/03/01 06:00:13;;;;;;;13.95;11.07;;;;;;;21.81;16.32;95401.28;5097630;28;20366;-53
2021/03/01 06:02:41;;;;;;;12.75;10.20;;;;;;;23.35;15.49;95397.41;5115209;28;20051;-54
2021/03/01 06:05:08;;;;;;;12.02;10.30;;;;;;;22.95;15.56;95399.41;5109967;28;20131;-53
2021/03/01 06:07:36;;;;;;;13.07;9.43;;;;;;;22.24;15.86;95402.66;5095204;28;20055;-51
2021/03/01 06:10:05;;;;;;;16.27;10.15;;;;;;;22.01;16.26;95405.72;5077917;28;20071;-53
2021/03/01 06:12:33;;;;;;;14.23;10.15;;;;;;;22.24;16.22;95402.66;5095156;28;20059;-52
2021/03/01 06:15:00;;;;;;;12.57;10.32;;;;;;;22.13;16.33;95405.78;5079139;28;20057;-58
2021/03/01 06:17:27;;;;;;;17.15;10.15;;;;;;;22.19;16.21;95400.22;5080262;28;20494;-53
2021/03/01 06:19:57;;;;;;;12.90;10.10;;;;;;;22.76;15.53;95399.97;5098725;28;20055;-52
2021/03/01 06:22:34;;;;;;;14.05;10.13;;;;;;;22.51;15.67;95395.81;5098656;28;20450;-54
2021/03/01 06:25:13;;;;;;;13.45;9.77;;;;;;;23.07;15.17;95380.66;5097116;28;20047;-53
2021/03/01 06:28:03;;;;;;;12.50;9.57;;;;;;;22.56;16.02;95382.25;5098214;28;20052;-53
2021/03/01 06:30:40;;;;;;;13.60;9.80;;;;;;;22.62;15.82;95373.69;5104245;28;20446;-56
2021/03/01 06:33:14;;;;;;;11.77;9.98;;;;;;;23.13;15.25;95379.28;5098129;28;20486;-53
2021/03/01 06:35:54;;;;;;;13.45;9.80;;;;;;;23.48;15.07;95379.44;5109227;28;20055;-51
2021/03/01 06:38:24;;;;;;;10.50;9.38;;;;;;;23.01;15.32;95366.03;5119299;28;20055;-56
2021/03/01 06:41:16;;;;;;;12.15;10.30;;;;;;;22.86;15.78;95374.75;5118867;28;20047;-54
2021/03/01 06:44:00;;;;;;;12.65;10.07;;;;;;;23.07;15.37;95375.31;5118571;28;20047;-54
2021/03/01 06:46:29;;;;;;;12.20;9.48;;;;;;;22.88;15.85;95369.84;5118638;28;20043;-54
2021/03/01 06:49:12;;;;;;;10.52;9.18;;;;;;;22.98;15.68;95369.38;5116858;28;20055;-52
2021/03/01 06:51:40;;;;;;;11.07;9.05;;;;;;;22.98;15.75;95370.16;5098106;28;20350;-54
2021/03/01 06:54:07;;;;;;;14.48;11.13;;;;;;;23.04;16.39;95370.69;5097798;28;20043;-52
2021/03/01 06:56:42;;;;;;;18.30;14.50;;;;;;;23.55;15.36;95384.94;5080092;28;20040;-54
2021/03/01 06:59:14;;;;;;;20.00;17.00;;;;;;;22.97;15.89;95387.28;5098067;28;20052;-52
2021/03/01 07:01:52;;;;;;;12.43;10.05;;;;;;;23.93;15.01;95378.22;5098054;28;20052;-59
2021/03/01 07:04:21;;;;;;;10.55;9.52;;;;;;;23.95;14.73;95379.47;5101174;28;20374;-48
2021/03/01 07:06:48;;;;;;;11.65;10.00;;;;;;;23.39;15.60;95386.81;5109928;28;20055;-49
2021/03/01 07:09:17;;;;;;;12.55;9.23;;;;;;;23.33;15.67;95388.19;5097826;28;20044;-48
2021/03/01 07:11:45;;;;;;;11.30;9.52;;;;;;;23.39;15.54;95392.94;5097752;28;20048;-50
2021/03/01 07:14:14;;;;;;;12.55;10.05;;;;;;;23.32;15.62;95398.09;5097548;28;20048;-51
2021/03/01 07:16:53;;;;;;;11.93;9.57;;;;;;;23.84;15.12;95397.13;5103490;28;20050;-52
2021/03/01 07:19:28;;;;;;;12.50;9.75;;;;;;;24.19;14.91;95401.72;5117987;28;20349;-54
2021/03/01 07:21:56;;;;;;;15.48;11.40;;;;;;;23.37;15.50;95405.06;5118041;28;20063;-47
2021/03/01 07:24:25;;;;;;;12.15;10.40;;;;;;;23.22;15.84;95408.50;5117873;28;20047;-54
2021/03/01 07:26:56;;;;;;;13.52;10.55;;;;;;;23.65;15.68;95411.13;5110446;28;20044;-51
2021/03/01 07:29:24;;;;;;;14.10;12.20;;;;;;;23.44;15.85;95421.28;5079767;28;20060;-51
2021/03/01 07:31:59;;;;;;;13.75;12.55;;;;;;;24.59;14.78;95404.16;5077157;28;20048;-49
2021/03/01 07:34:26;;;;;;;16.83;14.48;;;;;;;24.53;14.89;95409.00;5086189;28;20055;-54
2021/03/01 07:36:54;;;;;;;16.73;15.30;;;;;;;24.22;15.36;95420.53;5110415;28;20044;-52
2021/03/01 07:39:22;;;;;;;17.55;16.15;;;;;;;24.05;15.34;95417.44;5097246;28;20055;-55
2021/03/01 07:41:50;;;;;;;19.00;17.60;;;;;;;24.45;15.22;95409.97;5097242;28;20055;-50
2021/03/01 07:44:23;;;;;;;11.45;10.18;;;;;;;24.20;15.55;95424.63;5079110;28;20079;-50
2021/03/01 07:46:50;;;;;;;10.45;9.23;;;;;;;24.67;14.93;95421.13;5068691;28;20047;-47
2021/03/01 07:49:38;;;;;;;13.93;9.73;;;;;;;24.32;14.99;95419.22;5068962;28;20044;-52
2021/03/01 07:52:06;;;;;;;11.82;9.52;;;;;;;24.54;15.36;95423.91;5076348;28;20048;-55
2021/03/01 07:54:55;;;;;;;15.10;12.63;;;;;;;24.66;14.93;95408.88;5076382;28;20049;-54
2021/03/01 07:57:24;;;;;;;14.98;11.45;;;;;;;25.06;14.78;95424.63;5086740;28;20435;-51
2021/03/01 07:59:52;;;;;;;13.73;12.13;;;;;;;24.73;14.75;95403.69;5096586;28;20375;-51
2021/03/01 08:02:34;;;;;;;14.35;11.85;;;;;;;25.02;14.62;95405.81;5080445;28;20044;-50
2021/03/01 08:05:18;;;;;;;;;;;;;;;25.21;14.34;95413.81;5068000;28;20043;-51
2021/03/01 08:07:46;;;;;;;12.60;10.18;;;;;;;24.83;14.34;95397.78;5109022;28;19920;-52
2021/03/01 08:10:19;;;;;;;11.65;9.77;;;;;;;24.76;14.74;95394.97;5117233;28;20061;-54
2021/03/01 08:12:54;;;;;;;11.65;9.82;;;;;;;24.62;14.81;95400.00;5098968;28;20048;-55
2021/03/01 08:15:26;;;;;;;11.63;9.10;;;;;;;24.69;14.59;95410.84;5116911;28;20043;-56
2021/03/01 08:17:53;;;;;;;12.05;9.48;;;;;;;25.05;14.33;95415.81;5102752;28;20048;-51
2021/03/01 08:20:23;;;;;;;10.63;9.25;;;;;;;25.11;14.43;95411.72;5096571;28;20052;-54
2021/03/01 08:23:09;;;;;;;11.57;10.30;;;;;;;25.01;14.38;95398.94;5096002;28;20447;-68
2021/03/01 08:25:43;;;;;;;13.90;8.93;;;;;;;25.31;14.43;95411.72;5096239;28;20048;-51
2021/03/01 08:28:32;;;;;;;10.88;9.05;;;;;;;24.90;14.40;95409.38;5095920;28;20047;-50
2021/03/01 08:31:18;;;;;;;11.63;9.07;;;;;;;26.25;13.45;95388.75;5083168;28;20374;-54
2021/03/01 08:33:45;;;;;;;12.77;9.52;;;;;;;25.32;14.35;95389.94;5095836;28;20055;-51
2021/03/01 08:36:12;;;;;;;13.73;9.32;;;;;;;25.18;14.27;95390.44;5115087;28;20073;-55
2021/03/01 08:38:46;;;;;;;12.10;9.40;;;;;;;25.22;14.42;95395.84;5115631;28;20044;-49
2021/03/01 08:41:16;;;;;;;13.35;9.38;;;;;;;25.89;14.05;95400.84;5116167;28;20043;-50
2021/03/01 08:43:48;;;;;;;10.40;9.10;;;;;;;25.13;14.19;95406.03;5116129;28;20047;-53
2021/03/01 08:46:15;;;;;;;11.13;8.73;;;;;;;26.27;13.36;95399.88;5116409;28;20043;-49
2021/03/01 08:48:45;;;;;;;16.08;9.10;;;;;;;25.48;13.31;95401.31;5116143;28;20047;-52
2021/03/01 08:51:12;;;;;;;10.77;8.75;;;;;;;26.07;13.23;95409.97;5111296;28;20047;-51
2021/03/01 08:53:40;;;;;;;10.90;8.43;;;;;;;25.58;13.48;95402.63;5096003;28;20446;-51
2021/03/01 08:56:23;;;;;;;10.98;7.57;;;;;;;25.62;13.56;95392.75;5095934;28;20461;-47
2021/03/01 08:58:50;;;;;;;;;;;;;;;26.15;13.20;95394.75;5096227;28;20446;-50
2021/03/01 09:01:17;;;;;;;12.20;8.35;;;;;;;25.64;13.72;95392.41;5111756;28;19946;-56
2021/03/01 09:03:45;;;;;;;11.10;8.70;;;;;;;25.81;13.38;95387.38;5095863;28;20051;-52
2021/03/01 09:06:20;;;;;;;9.98;8.05;;;;;;;25.95;13.23;95386.03;5114858;28;20051;-50
2021/03/01 09:08:56;;;;;;;9.38;8.18;;;;;;;26.71;12.44;95384.06;5077776;28;20051;-48
2021/03/01 09:11:25;;;;;;;8.68;7.63;;;;;;;25.94;13.36;95381.81;5095746;28;20489;-51
2021/03/01 09:13:55;;;;;;;10.40;7.72;;;;;;;26.85;12.34;95378.88;5095878;28;20493;-53
2021/03/01 09:16:24;;;;;;;8.60;7.18;;;;;;;25.99;13.15;95387.63;5095791;28;20078;-50
2021/03/01 09:19:05;;;;;;;10.60;7.40;;;;;;;26.51;13.02;95396.03;5094545;28;20389;-47
2021/03/01 09:21:36;;;;;;;15.05;8.13;;;;;;;26.52;12.63;95376.13;5095382;28;20044;-51
2021/03/01 09:24:05;;;;;;;11.75;7.53;;;;;;;26.72;12.82;95388.28;5095585;28;20047;-51
2021/03/01 09:26:36;;;;;;;12.35;8.05;;;;;;;26.33;12.63;95388.53;5095396;28;20051;-51
2021/03/01 09:29:13;;;;;;;17.70;12.57;;;;;;;26.90;12.35;95386.59;5094687;28;20370;-52
2021/03/01 09:31:45;;;;;;;13.60;10.52;;;;;;;26.45;12.24;95384.09;5086395;28;20035;-49
2021/03/01 09:34:17;;;;;;;10.73;8.02;;;;;;;25.52;12.68;95382.66;5110902;28;20051;-51
2021/03/01 09:36:50;;;;;;;9.55;7.22;;;;;;;26.14;11.95;95383.25;5115738;28;20446;-47
2021/03/01 09:39:21;;;;;;;9.70;7.10;;;;;;;25.76;12.31;95376.97;5109548;28;20359;-49
2021/03/01 09:41:49;;;;;;;12.10;6.97;;;;;;;25.76;12.15;95379.63;5107903;28;20048;-49
2021/03/01 09:44:27;;;;;;;10.18;6.53;;;;;;;25.75;12.25;95383.41;5115277;28;20054;-49
2021/03/01 09:46:57;;;;;;;8.25;6.38;;;;;;;26.05;12.33;95386.22;5115503;28;20048;-53
2021/03/01 09:49:26;;;;;;;7.90;6.55;;;;;;;26.05;12.30;95377.41;5117010;28;20051;-47
2021/03/01 09:51:53;;;;;;;6.93;6.20;;;;;;;25.67;12.66;95392.47;5102480;28;20044;-49
2021/03/01 09:54:24;;;;;;;8.55;6.80;;;;;;;25.69;12.77;95384.84;5098911;28;20039;-52
2021/03/01 09:56:54;;;;;;;10.23;6.82;;;;;;;25.78;12.93;95388.09;5099190;28;20055;-49
2021/03/01 09:59:30;;;;;;;9.50;6.45;;;;;;;25.84;12.44;95391.22;5099185;28;20359;-49
2021/03/01 10:02:16;;;;;;;9.60;5.95;;;;;;;26.15;12.56;95387.47;5115997;28;20355;-49
2021/03/01 10:04:44;;;;;;;6.72;6.05;;;;;;;26.55;12.17;95391.53;5112086;28;20044;-56
2021/03/01 10:07:19;;;;;;;7.70;6.32;;;;;;;26.27;11.94;95392.63;5081016;28;20386;-47
2021/03/01 10:09:47;;;;;;;7.88;6.22;;;;;;;26.40;12.07;95385.97;5098791;28;20048;-49
2021/03/01 10:12:14;;;;;;;14.48;6.40;;;;;;;26.85;11.60;95384.22;5097744;28;20446;-49
2021/03/01 10:14:42;;;;;;;7.97;5.97;;;;;;;27.07;11.63;95381.81;5098723;28;20473;-49
2021/03/01 10:17:19;;;;;;;7.03;6.30;;;;;;;26.30;11.94;95391.94;5098570;28;20048;-47
2021/03/01 10:19:46;;;;;;;7.47;6.60;;;;;;;26.53;11.84;95381.13;5098741;28;20054;-52
2021/03/01 10:22:14;;;;;;;8.35;6.47;;;;;;;26.57;11.92;95378.53;5117387;28;20358;-52
2021/03/01 10:24:48;;;;;;;14.70;6.25;;;;;;;26.27;11.84;95378.44;5118700;28;20485;-47
2021/03/01 10:27:16;;;;;;;10.68;6.45;;;;;;;26.13;11.44;95377.13;5114682;28;20043;-50
2021/03/01 10:29:49;;;;;;;7.63;5.90;;;;;;;26.22;11.36;95368.81;5098583;28;20055;-48
2021/03/01 10:32:21;;;;;;;7.53;5.57;;;;;;;25.58;12.14;95370.50;5098140;28;20102;-48
2021/03/01 10:34:48;;;;;;;8.05;6.28;;;;;;;26.04;11.80;95376.63;5090272;28;20055;-50
2021/03/01 10:37:17;;;;;;;10.70;6.97;;;;;;;25.95;12.04;95365.38;5078073;28;20075;-50
2021/03/01 10:39:47;;;;;;;8.15;6.13;;;;;;;26.25;11.91;95362.72;5110098;28;20074;-50
2021/03/01 10:42:16;;;;;;;9.38;7.32;;;;;;;25.47;12.47;95346.22;5096003;28;20044;-50
2021/03/01 10:44:46;;;;;;;8.85;6.75;;;;;;;25.78;12.75;95347.91;5118177;28;20062;-50
2021/03/01 10:47:23;;;;;;;8.93;7.10;;;;;;;25.90;12.35;95351.50;5118361;28;20113;-47
2021/03/01 10:49:53;;;;;;;8.85;6.57;;;;;;;25.77;12.63;95349.06;5116811;28;20051;-50
2021/03/01 10:52:24;;;;;;;9.45;7.03;;;;;;;26.05;12.51;95353.28;5116891;28;20047;-52
2021/03/01 10:54:54;;;;;;;7.88;6.63;;;;;;;25.62;12.96;95357.16;5117303;28;20052;-52
2021/03/01 10:57:25;;;;;;;10.68;6.97;;;;;;;26.17;12.49;95339.66;5118233;28;20039;-50
2021/03/01 10:59:54;;;;;;;12.23;6.65;;;;;;;26.33;12.70;95339.50;5117962;28;20048;-49
2021/03/01 11:02:22;;;;;;;12.35;8.65;;;;;;;26.25;12.45;95340.53;5100761;28;20043;-51
2021/03/01 11:04:49;;;;;;;17.30;13.00;;;;;;;26.32;12.58;95341.41;5117856;28;20043;-55
2021/03/01 11:07:17;;;;;;;17.17;13.63;;;;;;;25.94;12.55;95338.94;5118266;28;20051;-48
2021/03/01 11:09:45;;;;;;;10.98;7.88;;;;;;;25.53;12.67;95336.00;5118327;28;20051;-47
2021/03/01 11:12:13;;;;;;;9.80;7.45;;;;;;;25.93;12.32;95334.72;5118188;28;20070;-51
2021/03/01 11:14:40;;;;;;;11.57;7.57;;;;;;;25.73;12.80;95326.78;5117709;28;20058;-48
2021/03/01 11:17:08;;;;;;;14.13;7.45;;;;;;;25.59;12.83;95326.53;5098856;28;20047;-51
2021/03/01 11:19:35;;;;;;;10.82;7.38;;;;;;;25.84;12.56;95324.28;5117497;28;20048;-50
2021/03/01 11:22:02;;;;;;;9.00;6.97;;;;;;;26.08;12.70;95317.72;5117650;28;20060;-54
2021/03/01 11:24:29;;;;;;;10.55;6.72;;;;;;;26.32;12.29;95324.56;5117515;28;20058;-49
2021/03/01 11:26:56;;;;;;;8.90;6.47;;;;;;;26.26;12.81;95324.06;5113625;28;20040;-50
2021/03/01 11:29:23;;;;;;;7.75;6.63;;;;;;;25.97;12.46;95317.56;5111554;28;20043;-49
2021/03/01 11:31:57;;;;;;;8.80;6.65;;;;;;;26.47;12.39;95320.16;5117459;28;20039;-47
2021/03/01 11:34:24;;;;;;;8.52;6.32;;;;;;;26.22;12.10;95315.22;5116983;28;20048;-49
2021/03/01 11:36:51;;;;;;;6.82;6.05;;;;;;;26.66;11.88;95311.97;5117387;28;20176;-50
2021/03/01 11:39:18;;;;;;;6.80;6.20;;;;;;;26.15;12.52;95319.72;5116918;28;20066;-49
2021/03/01 11:41:45;;;;;;;9.23;6.63;;;;;;;26.02;12.47;95311.91;5117221;28;20050;-47
2021/03/01 11:44:13;;;;;;;8.77;5.97;;;;;;;26.52;12.19;95307.19;5117057;28;20043;-48